Airport View

Enter AWOS ICAO identifier for current METAR.

ex. KFNL

KAQR 191215Z AUTO 32007KT 10SM SCT002 17/17 A2983 RMK AO2

19 May 2019 12:30

Frequency: 121.125

Phone: 580-889-6924

Other Area AWOS: KDUA - KMLC - KADH - KHHW

TAF KMLC 191120Z 1912/2012 26007KT 6SM BR FEW010 SCT250 FM191500 34009KT P6SM FEW250 FM200000 03004KT P6SM SCT250